^^
Station Historical Data
Daily Summary for June 24, 2017 Units:  English    Metric   Both
« Previous Day
Next Day »
Daily Weekly Monthly Yearly Custom
  High: Low: Average:
Temperature: 84.3 °F 70.1 °F 77 °F
Dew Point: 74.3 °F 56.1 °F 65 °F
Humidity: 97% 40% 70%
Wind Speed: 8.0mph 0.0mph 1.9mph
Wind Gust: 18.0mph - -
Wind- - SSW
Pressure: 29.91 in 29.57 in -
Precipitation: 0.56 in    
Historical Graphs
 
 
Tabular Data for June 24, 2017
Time Temperature Dew Point Pressure Wind Wind Speed Wind Gust Humidity Rainfall Rate (Hourly) Conditions
00:00 75.7 °F 73.6 °F 29.62 in SW 5.0 mph 14.0 mph 93% 0.00 in -RA
00:15 75.8 °F 73.6 °F 29.62 in South 8.0 mph 14.0 mph 93% 0.00 in -RA
00:30 75.9 °F 73.7 °F 29.62 in SSW 5.0 mph 12.0 mph 93% 0.00 in -RA
00:45 76.0 °F 73.5 °F 29.62 in SSW 3.0 mph 17.0 mph 92% 0.00 in -RA
01:00 76.1 °F 73.0 °F 29.61 in WSW 5.0 mph 16.0 mph 90% 0.00 in -RA
02:15 75.0 °F 71.2 °F 29.60 in South 3.0 mph 12.0 mph 88% 0.00 in CLR
02:30 74.8 °F 71.0 °F 29.61 in SSW 2.0 mph 12.0 mph 88% 0.00 in CLR
02:45 74.6 °F 71.1 °F 29.61 in South 3.0 mph 8.0 mph 89% 0.00 in CLR
03:00 73.8 °F 71.0 °F 29.61 in SSW 5.0 mph 12.0 mph 91% 0.02 in RA
03:15 73.3 °F 70.8 °F 29.62 in SW 5.0 mph 14.0 mph 92% 0.03 in RA
03:30 72.3 °F 70.2 °F 29.59 in SSW 2.0 mph 16.0 mph 93% 0.01 in SCT
03:45 72.0 °F 69.9 °F 29.59 in SSW 2.0 mph 8.0 mph 93% 0.00 in SCT
04:00 71.9 °F 70.1 °F 29.59 in SSW 1.0 mph 7.0 mph 94% 0.00 in SCT
04:15 71.9 °F 70.1 °F 29.59 in SSW 2.0 mph 10.0 mph 94% 0.00 in -RA
04:30 71.8 °F 70.0 °F 29.58 in SW 1.0 mph 4.0 mph 94% 0.01 in -RA
04:45 71.7 °F 70.2 °F 29.59 in Calm   5.0 mph 95% 0.03 in -RA
05:00 71.5 °F 70.0 °F 29.60 in SSW 3.0 mph 6.0 mph 95% 0.10 in -RA
05:15 71.2 °F 70.0 °F 29.59 in Calm   6.0 mph 96% 0.01 in -RA
05:30 71.0 °F 69.8 °F 29.60 in South 1.0 mph 3.0 mph 96% 0.01 in -RA
05:45 71.0 °F 69.8 °F 29.60 in SSW 1.0 mph 5.0 mph 96% 0.01 in -RA
06:00 70.9 °F 69.7 °F 29.58 in Calm   6.0 mph 96% 0.01 in -RA
06:15 70.9 °F 69.7 °F 29.59 in Calm   1.0 mph 96% 0.00 in -RA
06:30 71.0 °F 69.8 °F 29.58 in Calm   1.0 mph 96% 0.06 in -RA
06:45 70.9 °F 69.7 °F 29.58 in Calm   2.0 mph 96% 0.06 in -RA
07:00 70.7 °F 69.5 °F 29.58 in Calm   2.0 mph 96% 0.04 in -RA
07:15 70.7 °F 69.5 °F 29.58 in Calm   1.0 mph 96% 0.03 in -RA
07:30 70.5 °F 69.3 °F 29.57 in Calm     96% 0.03 in -RA
07:45 70.4 °F 69.5 °F 29.58 in Calm   1.0 mph 97% 0.03 in -RA
08:00 70.1 °F 68.9 °F 29.58 in Calm   2.0 mph 96% 0.03 in -RA
08:15 70.4 °F 69.5 °F 29.59 in Calm   2.0 mph 97% 0.04 in RA
08:30 70.5 °F 69.6 °F 29.60 in SW 1.0 mph 3.0 mph 97% 0.00 in BKN
08:45 70.7 °F 69.8 °F 29.59 in Calm   3.0 mph 97% 0.00 in BKN
09:00 71.2 °F 70.3 °F 29.60 in WSW 1.0 mph 3.0 mph 97% 0.00 in BKN
09:15 71.8 °F 70.9 °F 29.60 in SW 1.0 mph 5.0 mph 97% 0.00 in BKN
09:30 72.2 °F 71.3 °F 29.61 in SW 2.0 mph 6.0 mph 97% 0.00 in BKN
09:45 73.0 °F 72.1 °F 29.61 in SW 2.0 mph 7.0 mph 97% 0.00 in BKN
10:00 74.2 °F 72.7 °F 29.62 in SSW 2.0 mph 6.0 mph 95% 0.00 in BKN
10:15 76.1 °F 74.3 °F 29.62 in SSW 2.0 mph 5.0 mph 94% 0.00 in -RA
10:30 77.8 °F 74.3 °F 29.63 in WSW 1.0 mph 7.0 mph 89% 0.00 in -RA
10:45 78.6 °F 72.3 °F 29.64 in Calm   5.0 mph 81% 0.00 in -RA
11:00 79.7 °F 71.5 °F 29.65 in WSW 1.0 mph 8.0 mph 76% 0.00 in -RA
11:15 80.1 °F 68.6 °F 29.66 in North 3.0 mph 9.0 mph 68% 0.00 in FEW
11:30 80.7 °F 68.7 °F 29.67 in Calm   10.0 mph 67% 0.00 in FEW
11:45 80.8 °F 65.1 °F 29.67 in SSW 6.0 mph 10.0 mph 59% 0.00 in FEW
12:00 81.2 °F 64.5 °F 29.69 in ENE 2.0 mph 13.0 mph 57% 0.00 in FEW
12:15 82.1 °F 64.3 °F 29.70 in NW 3.0 mph 9.0 mph 55% 0.00 in FEW
12:30 81.4 °F 61.5 °F 29.70 in NNW 2.0 mph 13.0 mph 51% 0.00 in FEW
12:45 81.9 °F 60.9 °F 29.71 in NNE 3.0 mph 12.0 mph 49% 0.00 in FEW
13:00 82.6 °F 60.3 °F 29.71 in SW 5.0 mph 12.0 mph 47% 0.00 in FEW
13:15 82.4 °F 60.1 °F 29.72 in SSE 3.0 mph 14.0 mph 47% 0.00 in FEW
13:30 82.3 °F 59.5 °F 29.73 in South 3.0 mph 12.0 mph 46% 0.00 in FEW
13:45 82.7 °F 58.6 °F 29.73 in SW 5.0 mph 18.0 mph 44% 0.00 in FEW
14:00 83.1 °F 58.9 °F 29.73 in SSE 2.0 mph 14.0 mph 44% 0.00 in FEW
14:15 83.0 °F 59.5 °F 29.74 in West 3.0 mph 12.0 mph 45% 0.00 in FEW
15:00 83.8 °F 58.9 °F 29.75 in West 2.0 mph 11.0 mph 43% 0.00 in FEW
15:15 83.6 °F 58.1 °F 29.75 in NE 3.0 mph 10.0 mph 42% 0.00 in FEW
15:30 84.3 °F 58.0 °F 29.76 in South 3.0 mph 10.0 mph 41% 0.00 in FEW
15:45 83.0 °F 57.5 °F 29.76 in WNW 2.0 mph 9.0 mph 42% 0.00 in FEW
16:00 83.5 °F 58.6 °F 29.77 in South 5.0 mph 12.0 mph 43% 0.00 in FEW
16:15 83.2 °F 57.7 °F 29.78 in SE 3.0 mph 13.0 mph 42% 0.00 in FEW
16:30 81.6 °F 56.3 °F 29.78 in SSW 1.0 mph 12.0 mph 42% 0.00 in FEW
16:45 81.4 °F 56.1 °F 29.79 in North 2.0 mph 9.0 mph 42% 0.00 in FEW
17:00 82.9 °F 58.1 °F 29.79 in SSW 2.0 mph 6.0 mph 43% 0.00 in FEW
17:15 83.5 °F 57.3 °F 29.79 in West 1.0 mph 7.0 mph 41% 0.00 in FEW
17:30 83.6 °F 56.7 °F 29.79 in SSW 3.0 mph 8.0 mph 40% 0.00 in FEW
17:45 83.4 °F 57.2 °F 29.79 in SW 3.0 mph 10.0 mph 41% 0.00 in FEW
18:00 83.6 °F 57.4 °F 29.80 in SSW 2.0 mph 12.0 mph 41% 0.00 in FEW
18:15 84.0 °F 58.4 °F 29.80 in SSW 2.0 mph 7.0 mph 42% 0.00 in FEW
18:30 83.8 °F 58.2 °F 29.80 in WSW 1.0 mph 7.0 mph 42% 0.00 in FEW
18:45 83.9 °F 59.0 °F 29.80 in South 1.0 mph 5.0 mph 43% 0.00 in FEW
19:00 83.4 °F 57.2 °F 29.80 in SW 2.0 mph 6.0 mph 41% 0.00 in FEW
19:15 83.1 °F 58.3 °F 29.81 in SW 2.0 mph 7.0 mph 43% 0.00 in FEW
19:30 83.4 °F 59.2 °F 29.81 in SW 2.0 mph 4.0 mph 44% 0.00 in FEW
19:45 82.7 °F 58.6 °F 29.82 in SW 1.0 mph 5.0 mph 44% 0.00 in FEW
20:00 81.1 °F 58.4 °F 29.83 in Calm   4.0 mph 46% 0.00 in FEW
20:15 79.0 °F 60.4 °F 29.82 in Calm   1.0 mph 53% 0.00 in FEW
20:30 76.8 °F 59.9 °F 29.83 in Calm     56% 0.00 in FEW
20:45 75.0 °F 60.7 °F 29.83 in Calm     61% 0.00 in FEW
21:00 73.5 °F 61.9 °F 29.83 in Calm     67% 0.00 in FEW
21:15 73.0 °F 61.0 °F 29.84 in Calm   2.0 mph 66% 0.00 in CLR
21:30 75.3 °F 60.0 °F 29.85 in SSW 1.0 mph 6.0 mph 59% 0.00 in CLR
21:45 75.9 °F 60.5 °F 29.86 in SSW 2.0 mph 9.0 mph 59% 0.00 in CLR
22:00 76.1 °F 60.7 °F 29.87 in Calm   6.0 mph 59% 0.00 in CLR
22:15 76.0 °F 61.1 °F 29.88 in SW 2.0 mph 6.0 mph 60% 0.00 in CLR
22:30 76.0 °F 61.1 °F 29.88 in SSW 2.0 mph 10.0 mph 60% 0.00 in CLR
22:45 75.9 °F 61.5 °F 29.88 in SSW 2.0 mph 12.0 mph 61% 0.00 in CLR
23:00 75.5 °F 61.6 °F 29.88 in South 3.0 mph 8.0 mph 62% 0.00 in CLR
23:15 75.6 °F 61.2 °F 29.89 in SW 2.0 mph 8.0 mph 61% 0.00 in CLR
23:30 75.4 °F 61.9 °F 29.91 in SSE 2.0 mph 6.0 mph 63% 0.00 in CLR
23:45 74.5 °F 61.5 °F 29.91 in NNE 3.0 mph 9.0 mph 64% 0.00 in CLR
TarryTown NY Weather
Compliments of Weather Underground - 1.5 mb